createdAt,value
2023-03-15T00:00:55.368Z,8.85
2023-03-15T00:03:58.441Z,8.89
2023-03-15T00:07:01.235Z,8.85
2023-03-15T00:10:04.498Z,8.70
2023-03-15T00:13:07.338Z,8.74
2023-03-15T00:16:10.305Z,8.65
2023-03-15T00:19:14.506Z,8.59
2023-03-15T00:22:17.396Z,8.63
2023-03-15T00:25:20.031Z,8.54
2023-03-15T00:28:23.120Z,8.55
2023-03-15T00:31:27.816Z,8.53
2023-03-15T00:34:33.769Z,8.50
2023-03-15T00:37:37.639Z,8.49
2023-03-15T00:40:43.529Z,8.41
2023-03-15T00:43:47.216Z,8.38
2023-03-15T00:46:50.530Z,8.36
2023-03-15T00:49:53.243Z,8.27
2023-03-15T00:52:58.114Z,8.21
2023-03-15T00:56:08.559Z,8.26
2023-03-15T00:59:11.720Z,8.26
2023-03-15T01:02:14.921Z,8.20
2023-03-15T01:05:18.205Z,8.19
2023-03-15T01:08:20.903Z,8.14
2023-03-15T01:11:26.886Z,8.11
2023-03-15T01:14:29.537Z,8.05
2023-03-15T01:17:34.009Z,8.08
2023-03-15T01:20:37.901Z,8.09
2023-03-15T01:23:42.096Z,8.02
2023-03-15T01:26:44.640Z,8.00
2023-03-15T01:29:47.516Z,7.96
2023-03-15T01:32:50.829Z,7.93
2023-03-15T01:36:07.671Z,7.97
2023-03-15T01:39:11.192Z,7.93
2023-03-15T01:42:14.561Z,7.88
2023-03-15T01:45:54.758Z,7.87
2023-03-15T01:49:25.481Z,7.82
2023-03-15T01:52:36.351Z,7.79
2023-03-15T01:55:40.674Z,7.79
2023-03-15T01:58:45.095Z,7.74
2023-03-15T02:01:50.334Z,7.73
2023-03-15T02:04:58.968Z,7.72
2023-03-15T02:08:02.898Z,7.68
2023-03-15T02:11:07.463Z,7.72
2023-03-15T02:14:11.624Z,7.74
2023-03-15T02:17:14.615Z,7.68
2023-03-15T02:20:57.332Z,7.63
2023-03-15T02:24:03.170Z,7.65
2023-03-15T02:27:06.060Z,7.67
2023-03-15T02:30:10.912Z,7.66
2023-03-15T02:33:45.076Z,7.64
2023-03-15T02:36:47.959Z,7.52
2023-03-15T02:39:50.574Z,7.50
2023-03-15T02:43:01.606Z,7.45
2023-03-15T02:46:04.528Z,7.47
2023-03-15T02:49:08.600Z,7.40
2023-03-15T02:52:13.892Z,7.43
2023-03-15T02:55:19.385Z,7.33
2023-03-15T02:58:22.246Z,7.36
2023-03-15T03:01:25.152Z,7.36
2023-03-15T03:04:27.895Z,7.36
2023-03-15T03:07:31.075Z,7.29
2023-03-15T03:10:34.588Z,7.29
2023-03-15T03:13:37.852Z,7.30
2023-03-15T03:16:42.722Z,7.32
2023-03-15T03:19:45.538Z,7.27
2023-03-15T03:22:48.169Z,7.25
2023-03-15T03:25:54.010Z,7.25
2023-03-15T03:28:56.720Z,7.18
2023-03-15T03:32:00.938Z,7.21
2023-03-15T03:35:03.810Z,7.17
2023-03-15T03:38:09.657Z,7.17
2023-03-15T03:41:15.179Z,7.13
2023-03-15T03:44:18.616Z,7.18
2023-03-15T03:47:21.563Z,7.09
2023-03-15T03:50:25.041Z,7.13
2023-03-15T03:53:27.823Z,7.17
2023-03-15T03:56:31.378Z,7.18
2023-03-15T03:59:34.085Z,7.06
2023-03-15T04:02:37.733Z,7.18
2023-03-15T04:05:42.022Z,7.11
2023-03-15T04:08:45.198Z,7.13
2023-03-15T04:11:48.849Z,7.14
2023-03-15T04:14:52.321Z,7.09
2023-03-15T04:17:56.749Z,7.04
2023-03-15T04:21:00.418Z,7.08
2023-03-15T04:24:04.343Z,7.08
2023-03-15T04:27:08.004Z,6.99
2023-03-15T04:30:12.633Z,7.06
2023-03-15T04:33:16.911Z,7.00
2023-03-15T04:36:23.780Z,7.09
2023-03-15T04:39:28.104Z,7.07
2023-03-15T04:42:31.364Z,7.08
2023-03-15T04:45:36.022Z,7.06
2023-03-15T04:48:39.753Z,7.07
2023-03-15T04:51:42.474Z,7.09
2023-03-15T04:54:45.235Z,7.10
2023-03-15T04:57:48.112Z,7.10
2023-03-15T05:00:54.006Z,7.08
2023-03-15T05:03:58.611Z,7.07
2023-03-15T05:07:02.525Z,6.94
2023-03-15T05:10:07.092Z,6.99
2023-03-15T05:13:10.139Z,6.87
2023-03-15T05:16:13.051Z,6.82
2023-03-15T05:19:16.166Z,6.77
2023-03-15T05:22:19.479Z,6.64
2023-03-15T05:25:24.492Z,6.52
2023-03-15T05:28:28.156Z,6.52
2023-03-15T05:31:37.011Z,6.33
2023-03-15T05:34:40.779Z,6.29
2023-03-15T05:37:43.787Z,6.18
2023-03-15T05:40:48.039Z,6.19
2023-03-15T05:43:51.648Z,6.10
2023-03-15T05:46:54.615Z,6.05
2023-03-15T05:49:57.618Z,5.95
2023-03-15T05:53:00.706Z,5.63
2023-03-15T05:56:04.040Z,5.85
2023-03-15T05:59:10.347Z,5.77
2023-03-15T06:02:13.608Z,5.70
2023-03-15T06:05:16.808Z,5.74
2023-03-15T06:08:20.108Z,5.73
2023-03-15T06:11:23.260Z,5.67
2023-03-15T06:14:27.341Z,5.63
2023-03-15T06:17:31.262Z,5.73
2023-03-15T06:20:38.576Z,5.70
2023-03-15T06:23:42.492Z,5.62
2023-03-15T06:26:45.369Z,5.66
2023-03-15T06:29:50.509Z,5.66
2023-03-15T06:32:54.901Z,5.72
2023-03-15T06:35:58.068Z,5.68
2023-03-15T06:39:02.853Z,5.67
2023-03-15T06:42:08.240Z,5.71
2023-03-15T06:45:13.467Z,5.75
2023-03-15T06:48:17.476Z,5.68
2023-03-15T06:51:20.637Z,5.67
2023-03-15T06:54:24.134Z,5.72
2023-03-15T06:57:26.966Z,5.79
2023-03-15T07:00:31.186Z,5.77
2023-03-15T07:03:34.175Z,5.70
2023-03-15T07:06:37.355Z,5.75
2023-03-15T07:09:40.350Z,5.79
2023-03-15T07:12:43.368Z,5.78
2023-03-15T07:15:47.720Z,5.76
2023-03-15T07:18:51.190Z,5.73
2023-03-15T07:21:53.826Z,5.76
2023-03-15T07:24:56.786Z,5.63
2023-03-15T07:27:59.343Z,5.68
2023-03-15T07:31:04.738Z,5.71
2023-03-15T07:34:07.579Z,5.68
2023-03-15T07:37:10.972Z,5.68
2023-03-15T07:40:14.087Z,5.67
2023-03-15T07:43:17.947Z,5.50
2023-03-15T07:46:21.717Z,5.59
2023-03-15T07:49:24.661Z,5.53
2023-03-15T07:52:27.822Z,5.61
2023-03-15T07:55:32.438Z,5.56
2023-03-15T07:58:35.077Z,5.59
2023-03-15T08:01:38.326Z,5.51
2023-03-15T08:04:41.488Z,5.52
2023-03-15T08:07:44.762Z,5.37
2023-03-15T08:10:48.010Z,5.51
2023-03-15T08:13:50.791Z,5.47
2023-03-15T08:16:53.769Z,5.44
2023-03-15T08:19:56.523Z,5.41
2023-03-15T08:22:59.773Z,5.53
2023-03-15T08:26:02.273Z,5.54
2023-03-15T08:29:05.387Z,5.51
2023-03-15T08:32:08.480Z,5.58
2023-03-15T08:35:15.552Z,5.51
2023-03-15T08:38:18.515Z,5.61
2023-03-15T08:41:21.505Z,5.64
2023-03-15T08:44:24.134Z,5.69
2023-03-15T08:47:27.048Z,5.66
2023-03-15T08:50:32.984Z,5.74
2023-03-15T08:53:35.901Z,5.77
2023-03-15T08:56:38.484Z,5.81
2023-03-15T08:59:41.484Z,5.81
2023-03-15T09:02:44.460Z,5.81
2023-03-15T09:05:47.637Z,5.83
2023-03-15T09:08:50.453Z,5.81
2023-03-15T09:11:53.428Z,6.05
2023-03-15T09:14:56.370Z,6.92
2023-03-15T09:17:59.161Z,7.03
2023-03-15T09:21:02.177Z,7.31
2023-03-15T09:24:05.250Z,7.35
2023-03-15T09:27:07.846Z,7.43
2023-03-15T09:30:11.332Z,7.53
2023-03-15T09:33:15.686Z,7.61
2023-03-15T09:36:18.615Z,7.60
2023-03-15T09:39:22.110Z,7.67
2023-03-15T09:42:28.141Z,7.55
2023-03-15T09:45:58.920Z,7.70
2023-03-15T09:49:10.217Z,7.73
2023-03-15T09:52:15.769Z,7.71
2023-03-15T09:55:28.993Z,7.48
2023-03-15T09:58:33.020Z,7.19
2023-03-15T10:01:38.706Z,6.93
2023-03-15T10:04:43.592Z,6.78
2023-03-15T10:07:46.487Z,6.68
2023-03-15T10:11:09.245Z,6.57
2023-03-15T10:14:23.689Z,6.56
2023-03-15T10:17:47.956Z,6.52
2023-03-15T10:20:56.745Z,6.49
2023-03-15T10:24:00.820Z,6.56
2023-03-15T10:27:43.386Z,6.49
2023-03-15T10:30:51.520Z,6.54
2023-03-15T10:33:55.114Z,6.60
2023-03-15T10:36:57.889Z,6.63
2023-03-15T10:40:01.065Z,6.69
2023-03-15T10:43:13.598Z,6.78
2023-03-15T10:46:23.741Z,6.91
2023-03-15T10:49:34.925Z,7.00
2023-03-15T10:52:39.651Z,7.18
2023-03-15T10:55:44.337Z,7.34
2023-03-15T10:59:05.292Z,7.42
2023-03-15T11:02:11.751Z,7.52
2023-03-15T11:05:17.250Z,7.74
2023-03-15T11:08:23.000Z,7.86
2023-03-15T11:11:25.685Z,7.97
2023-03-15T11:14:41.901Z,8.06
2023-03-15T11:17:49.846Z,8.18
2023-03-15T11:20:55.462Z,8.26
2023-03-15T11:23:58.404Z,8.30
2023-03-15T11:27:04.006Z,8.61
2023-03-15T11:30:13.350Z,8.62
2023-03-15T11:33:39.104Z,8.91
2023-03-15T11:36:45.345Z,8.89
2023-03-15T11:40:11.626Z,8.91
2023-03-15T11:43:23.158Z,8.63
2023-03-15T11:46:33.360Z,8.42
2023-03-15T11:49:45.040Z,8.54
2023-03-15T11:52:49.954Z,8.56
2023-03-15T11:55:55.560Z,8.57
2023-03-15T11:59:11.278Z,8.68
2023-03-15T12:02:14.139Z,8.68
2023-03-15T12:05:46.061Z,8.77
2023-03-15T12:08:53.489Z,8.73
2023-03-15T12:12:05.795Z,9.12
2023-03-15T12:15:14.140Z,9.44
2023-03-15T12:18:22.583Z,9.48
2023-03-15T12:21:38.395Z,9.27
2023-03-15T12:24:44.974Z,9.24
2023-03-15T12:27:50.504Z,9.16
2023-03-15T12:30:56.601Z,9.04
2023-03-15T12:34:01.378Z,8.94
2023-03-15T12:37:42.596Z,8.72
2023-03-15T12:41:08.677Z,8.49
2023-03-15T12:44:18.392Z,8.18
2023-03-15T12:47:20.858Z,7.82
2023-03-15T12:50:45.007Z,7.71
2023-03-15T12:53:48.350Z,7.64
2023-03-15T12:56:56.663Z,7.66
2023-03-15T13:00:20.530Z,7.65
2023-03-15T13:03:26.461Z,7.57
2023-03-15T13:06:51.222Z,7.52
2023-03-15T13:09:56.730Z,7.61
2023-03-15T13:13:38.036Z,7.67
2023-03-15T13:16:59.790Z,7.78
2023-03-15T13:20:21.607Z,7.85
2023-03-15T13:23:34.221Z,7.78
2023-03-15T13:26:48.387Z,7.84
2023-03-15T13:29:51.564Z,7.84
2023-03-15T13:33:31.934Z,7.85
2023-03-15T13:36:40.662Z,7.88
2023-03-15T13:40:01.321Z,7.88
2023-03-15T13:43:04.278Z,7.89
2023-03-15T13:46:06.973Z,7.89
2023-03-15T13:49:12.244Z,8.13
2023-03-15T13:52:14.904Z,8.28
2023-03-15T13:55:22.570Z,8.18
2023-03-15T13:58:25.959Z,8.55
2023-03-15T14:01:30.281Z,8.30
2023-03-15T14:04:38.094Z,8.09
2023-03-15T14:07:45.382Z,7.81
2023-03-15T14:11:12.255Z,7.77
2023-03-15T14:14:24.536Z,7.81
2023-03-15T14:17:29.531Z,7.78
2023-03-15T14:20:42.431Z,7.75
2023-03-15T14:23:48.513Z,7.69
2023-03-15T14:26:54.097Z,7.48
2023-03-15T14:29:59.310Z,7.30
2023-03-15T14:33:08.818Z,7.23
2023-03-15T14:36:30.883Z,7.15
2023-03-15T14:39:41.798Z,7.02
2023-03-15T14:42:45.182Z,6.99
2023-03-15T14:45:48.871Z,6.93
2023-03-15T14:48:52.283Z,6.91
2023-03-15T14:51:57.757Z,6.75
2023-03-15T14:55:00.779Z,6.74
2023-03-15T14:58:05.311Z,6.68
2023-03-15T15:01:18.322Z,6.67
2023-03-15T15:04:22.253Z,6.69
2023-03-15T15:07:25.139Z,6.69
2023-03-15T15:10:28.384Z,6.73
2023-03-15T15:13:33.846Z,6.69
2023-03-15T15:16:36.402Z,6.71
2023-03-15T15:19:39.562Z,6.59
2023-03-15T15:22:46.198Z,6.52
2023-03-15T15:25:50.584Z,6.53
2023-03-15T15:28:53.433Z,6.51
2023-03-15T15:31:56.673Z,6.51
2023-03-15T15:34:59.883Z,6.52
2023-03-15T15:38:02.961Z,6.49
2023-03-15T15:41:32.409Z,6.55
2023-03-15T15:44:35.258Z,6.56
2023-03-15T15:47:37.836Z,6.56
2023-03-15T15:50:41.289Z,6.52
2023-03-15T15:53:44.305Z,6.53
2023-03-15T15:56:57.257Z,6.45
2023-03-15T16:00:00.142Z,6.49
2023-03-15T16:03:03.063Z,6.46
2023-03-15T16:06:07.347Z,6.43
2023-03-15T16:09:11.942Z,6.46
2023-03-15T16:12:18.008Z,6.43
2023-03-15T16:15:20.817Z,6.42
2023-03-15T16:18:24.208Z,6.40
2023-03-15T16:21:29.206Z,6.36
2023-03-15T16:24:35.994Z,7.23
2023-03-15T16:27:39.214Z,7.38
2023-03-15T16:30:46.381Z,7.61
2023-03-15T16:33:50.352Z,7.42
2023-03-15T16:36:56.630Z,6.98
2023-03-15T16:40:01.136Z,6.61
2023-03-15T16:43:06.335Z,6.37
2023-03-15T16:46:17.187Z,6.33
2023-03-15T16:49:21.180Z,6.19
2023-03-15T16:52:24.352Z,6.07
2023-03-15T16:55:29.831Z,6.04
2023-03-15T16:58:32.499Z,5.93
2023-03-15T17:01:35.722Z,5.95
2023-03-15T17:04:38.834Z,5.80
2023-03-15T17:07:41.959Z,5.81
2023-03-15T17:10:47.454Z,5.83
2023-03-15T17:13:51.763Z,5.74
2023-03-15T17:16:54.664Z,5.74
2023-03-15T17:19:57.876Z,5.65
2023-03-15T17:23:04.376Z,5.71
2023-03-15T17:26:19.932Z,5.66
2023-03-15T17:29:22.788Z,5.69
2023-03-15T17:32:26.063Z,5.71
2023-03-15T17:35:34.265Z,5.65
2023-03-15T17:38:40.913Z,5.60
2023-03-15T17:41:46.938Z,5.56
2023-03-15T17:44:50.088Z,5.50
2023-03-15T17:47:54.234Z,5.59
2023-03-15T17:50:58.182Z,5.52
2023-03-15T17:54:01.809Z,5.44
2023-03-15T17:57:09.530Z,5.50
2023-03-15T18:00:14.318Z,5.43
2023-03-15T18:03:19.096Z,5.33
2023-03-15T18:06:22.933Z,5.27
2023-03-15T18:09:27.208Z,5.22
2023-03-15T18:12:34.224Z,5.10
2023-03-15T18:15:37.482Z,4.99
2023-03-15T18:18:41.793Z,5.00
2023-03-15T18:21:45.063Z,4.91
2023-03-15T18:24:47.962Z,4.74
2023-03-15T18:27:51.417Z,4.70
2023-03-15T18:30:54.502Z,4.64
2023-03-15T18:33:58.319Z,4.54
2023-03-15T18:37:00.829Z,4.49
2023-03-15T18:40:05.046Z,4.45
2023-03-15T18:43:12.458Z,4.42
2023-03-15T18:46:17.532Z,4.41
2023-03-15T18:49:20.557Z,4.44
2023-03-15T18:52:23.956Z,4.47
2023-03-15T18:55:27.050Z,4.43
2023-03-15T18:58:33.284Z,4.43
2023-03-15T19:01:38.296Z,4.42
2023-03-15T19:04:41.898Z,4.42
2023-03-15T19:07:47.573Z,4.42
2023-03-15T19:10:58.216Z,4.41
2023-03-15T19:14:01.094Z,4.38
2023-03-15T19:17:04.331Z,4.38
2023-03-15T19:20:12.575Z,4.39
2023-03-15T19:23:16.141Z,4.39
2023-03-15T19:26:19.236Z,4.34
2023-03-15T19:29:22.252Z,4.33
2023-03-15T19:32:30.117Z,4.27
2023-03-15T19:35:33.869Z,4.22
2023-03-15T19:38:37.676Z,4.17
2023-03-15T19:41:44.874Z,4.18
2023-03-15T19:44:48.546Z,4.10
2023-03-15T19:47:52.423Z,4.05
2023-03-15T19:50:58.504Z,4.03
2023-03-15T19:54:03.402Z,4.11
2023-03-15T19:57:08.971Z,4.00
2023-03-15T20:00:16.162Z,3.99
2023-03-15T20:03:19.384Z,3.59
2023-03-15T20:06:22.360Z,3.95
2023-03-15T20:09:27.330Z,3.92
2023-03-15T20:12:30.256Z,3.91
2023-03-15T20:15:34.056Z,3.93
2023-03-15T20:18:36.940Z,3.92
2023-03-15T20:21:40.668Z,3.90
2023-03-15T20:24:44.317Z,3.83
2023-03-15T20:27:47.834Z,3.84
2023-03-15T20:30:50.814Z,3.76
2023-03-15T20:33:55.343Z,3.81
2023-03-15T20:36:59.098Z,3.85
2023-03-15T20:40:08.896Z,3.71
2023-03-15T20:43:12.517Z,3.80
2023-03-15T20:46:18.777Z,3.77
2023-03-15T20:49:21.748Z,3.76
2023-03-15T20:52:25.516Z,3.74
2023-03-15T20:55:28.287Z,3.75
2023-03-15T20:58:31.751Z,3.76
2023-03-15T21:01:35.602Z,3.64
2023-03-15T21:04:40.049Z,3.65
2023-03-15T21:07:44.029Z,3.67
2023-03-15T21:10:47.109Z,3.65
2023-03-15T21:13:49.695Z,3.65
2023-03-15T21:16:52.760Z,3.62
2023-03-15T21:19:55.568Z,3.64
2023-03-15T21:22:59.128Z,3.59
2023-03-15T21:26:05.016Z,3.60
2023-03-15T21:29:08.155Z,3.54
2023-03-15T21:32:10.994Z,3.54
2023-03-15T21:35:15.239Z,3.54
2023-03-15T21:38:18.054Z,3.57
2023-03-15T21:41:21.840Z,3.63
2023-03-15T21:44:24.499Z,3.57
2023-03-15T21:47:27.729Z,3.57
2023-03-15T21:50:31.419Z,3.57
2023-03-15T21:53:34.846Z,3.57
2023-03-15T21:56:37.576Z,3.54
2023-03-15T21:59:41.040Z,3.52
2023-03-15T22:02:44.459Z,3.54
2023-03-15T22:05:47.348Z,3.53
2023-03-15T22:08:50.349Z,3.56
2023-03-15T22:11:53.421Z,3.56
2023-03-15T22:15:05.185Z,3.49
2023-03-15T22:18:08.937Z,3.59
2023-03-15T22:21:11.431Z,3.53
2023-03-15T22:24:14.326Z,3.56
2023-03-15T22:27:16.828Z,3.56
2023-03-15T22:30:19.957Z,3.52
2023-03-15T22:33:23.032Z,3.48
2023-03-15T22:36:26.121Z,3.46
2023-03-15T22:39:29.922Z,3.46
2023-03-15T22:42:32.982Z,3.46
2023-03-15T22:45:36.029Z,3.47
2023-03-15T22:48:39.067Z,3.43
2023-03-15T22:51:41.715Z,3.41
2023-03-15T22:54:44.792Z,3.42
2023-03-15T22:57:47.765Z,3.44
2023-03-15T23:00:51.089Z,3.44
2023-03-15T23:03:54.612Z,3.41
2023-03-15T23:06:57.501Z,3.29
2023-03-15T23:10:00.039Z,3.37
2023-03-15T23:13:03.726Z,3.40
2023-03-15T23:16:07.142Z,3.39
2023-03-15T23:19:10.533Z,3.30
2023-03-15T23:22:13.352Z,3.36
2023-03-15T23:25:19.750Z,3.31
2023-03-15T23:28:24.428Z,3.35
2023-03-15T23:31:27.319Z,3.33
2023-03-15T23:34:29.823Z,3.29
2023-03-15T23:37:32.981Z,3.32
2023-03-15T23:40:35.881Z,3.33
2023-03-15T23:43:38.809Z,3.19
2023-03-15T23:46:41.680Z,3.24
2023-03-15T23:49:44.626Z,3.25
2023-03-15T23:52:47.818Z,3.24
2023-03-15T23:55:53.605Z,3.23
2023-03-15T23:58:56.418Z,3.19
